sensor_id;sensor_type;location;lat;lon;timestamp;P1;durP1;ratioP1;P2;durP2;ratioP2
24325;SDS011;12448;45.532;5.290;2022-12-18T00:00:29;58.20;;;25.33;;
24325;SDS011;12448;45.532;5.290;2022-12-18T00:02:55;98.37;;;35.33;;
24325;SDS011;12448;45.532;5.290;2022-12-18T00:05:21;55.93;;;25.80;;
24325;SDS011;12448;45.532;5.290;2022-12-18T00:07:46;53.97;;;25.97;;
24325;SDS011;12448;45.532;5.290;2022-12-18T00:10:12;56.40;;;24.87;;
24325;SDS011;12448;45.532;5.290;2022-12-18T00:12:38;59.73;;;27.30;;
24325;SDS011;12448;45.532;5.290;2022-12-18T00:15:04;60.40;;;26.73;;
24325;SDS011;12448;45.532;5.290;2022-12-18T00:17:30;57.73;;;25.60;;
24325;SDS011;12448;45.532;5.290;2022-12-18T00:19:55;56.60;;;26.20;;
24325;SDS011;12448;45.532;5.290;2022-12-18T00:22:23;52.30;;;24.73;;
24325;SDS011;12448;45.532;5.290;2022-12-18T00:24:49;57.10;;;25.17;;
24325;SDS011;12448;45.532;5.290;2022-12-18T00:27:15;49.73;;;24.83;;
24325;SDS011;12448;45.532;5.290;2022-12-18T00:29:40;56.00;;;25.00;;
24325;SDS011;12448;45.532;5.290;2022-12-18T00:32:06;58.07;;;27.30;;
24325;SDS011;12448;45.532;5.290;2022-12-18T00:34:32;54.87;;;25.73;;
24325;SDS011;12448;45.532;5.290;2022-12-18T00:36:57;53.43;;;24.43;;
24325;SDS011;12448;45.532;5.290;2022-12-18T00:39:23;53.93;;;26.53;;
24325;SDS011;12448;45.532;5.290;2022-12-18T00:41:49;45.87;;;23.57;;
24325;SDS011;12448;45.532;5.290;2022-12-18T00:44:33;50.10;;;24.33;;
24325;SDS011;12448;45.532;5.290;2022-12-18T00:46:59;47.93;;;24.40;;
24325;SDS011;12448;45.532;5.290;2022-12-18T00:49:24;50.77;;;23.30;;
24325;SDS011;12448;45.532;5.290;2022-12-18T00:51:50;48.67;;;24.03;;
24325;SDS011;12448;45.532;5.290;2022-12-18T00:54:16;51.57;;;22.90;;
24325;SDS011;12448;45.532;5.290;2022-12-18T00:56:42;49.03;;;23.00;;
24325;SDS011;12448;45.532;5.290;2022-12-18T00:59:08;48.13;;;23.83;;
24325;SDS011;12448;45.532;5.290;2022-12-18T01:01:34;51.37;;;24.87;;
24325;SDS011;12448;45.532;5.290;2022-12-18T01:04:00;48.80;;;23.17;;
24325;SDS011;12448;45.532;5.290;2022-12-18T01:06:27;56.00;;;26.77;;
24325;SDS011;12448;45.532;5.290;2022-12-18T01:08:53;68.53;;;30.33;;
24325;SDS011;12448;45.532;5.290;2022-12-18T01:11:19;102.77;;;42.23;;
24325;SDS011;12448;45.532;5.290;2022-12-18T01:13:45;108.53;;;45.10;;
24325;SDS011;12448;45.532;5.290;2022-12-18T01:16:12;132.00;;;52.40;;
24325;SDS011;12448;45.532;5.290;2022-12-18T01:18:39;104.37;;;41.77;;
24325;SDS011;12448;45.532;5.290;2022-12-18T01:21:06;129.87;;;48.20;;
24325;SDS011;12448;45.532;5.290;2022-12-18T01:23:36;77.87;;;33.17;;
24325;SDS011;12448;45.532;5.290;2022-12-18T01:26:06;61.03;;;28.03;;
24325;SDS011;12448;45.532;5.290;2022-12-18T01:33:46;69.97;;;30.33;;
24325;SDS011;12448;45.532;5.290;2022-12-18T01:36:19;82.73;;;33.03;;
24325;SDS011;12448;45.532;5.290;2022-12-18T01:38:45;72.68;;;30.70;;
24325;SDS011;12448;45.532;5.290;2022-12-18T01:41:12;69.77;;;29.47;;
24325;SDS011;12448;45.532;5.290;2022-12-18T01:46:06;56.33;;;24.33;;
24325;SDS011;12448;45.532;5.290;2022-12-18T01:48:32;63.87;;;29.13;;
24325;SDS011;12448;45.532;5.290;2022-12-18T01:51:06;52.13;;;25.17;;
24325;SDS011;12448;45.532;5.290;2022-12-18T01:53:34;49.73;;;22.90;;
24325;SDS011;12448;45.532;5.290;2022-12-18T01:56:02;52.07;;;24.33;;
24325;SDS011;12448;45.532;5.290;2022-12-18T01:58:32;45.37;;;22.27;;
24325;SDS011;12448;45.532;5.290;2022-12-18T02:01:19;50.83;;;24.43;;
24325;SDS011;12448;45.532;5.290;2022-12-18T02:03:47;50.63;;;23.93;;
24325;SDS011;12448;45.532;5.290;2022-12-18T02:06:19;50.40;;;25.33;;
24325;SDS011;12448;45.532;5.290;2022-12-18T02:11:26;64.40;;;26.93;;
24325;SDS011;12448;45.532;5.290;2022-12-18T02:19:03;73.03;;;31.17;;
24325;SDS011;12448;45.532;5.290;2022-12-18T02:24:11;57.63;;;27.40;;
24325;SDS011;12448;45.532;5.290;2022-12-18T02:27:04;50.30;;;22.27;;
24325;SDS011;12448;45.532;5.290;2022-12-18T02:29:39;45.60;;;23.47;;
24325;SDS011;12448;45.532;5.290;2022-12-18T02:32:14;44.77;;;22.67;;
24325;SDS011;12448;45.532;5.290;2022-12-18T02:34:42;46.43;;;22.60;;
24325;SDS011;12448;45.532;5.290;2022-12-18T02:37:10;56.13;;;26.13;;
24325;SDS011;12448;45.532;5.290;2022-12-18T02:39:40;73.63;;;31.03;;
24325;SDS011;12448;45.532;5.290;2022-12-18T02:42:08;81.20;;;34.33;;
24325;SDS011;12448;45.532;5.290;2022-12-18T02:44:48;72.13;;;30.63;;
24325;SDS011;12448;45.532;5.290;2022-12-18T02:47:16;45.80;;;22.90;;
24325;SDS011;12448;45.532;5.290;2022-12-18T02:58:02;45.30;;;20.23;;
24325;SDS011;12448;45.532;5.290;2022-12-18T03:03:05;37.97;;;20.47;;
24325;SDS011;12448;45.532;5.290;2022-12-18T03:08:18;37.80;;;19.53;;
24325;SDS011;12448;45.532;5.290;2022-12-18T03:10:51;38.80;;;18.57;;
24325;SDS011;12448;45.532;5.290;2022-12-18T03:16:05;39.87;;;19.30;;
24325;SDS011;12448;45.532;5.290;2022-12-18T03:18:35;37.63;;;19.40;;
24325;SDS011;12448;45.532;5.290;2022-12-18T03:21:10;39.10;;;20.00;;
24325;SDS011;12448;45.532;5.290;2022-12-18T03:23:40;43.33;;;22.47;;
24325;SDS011;12448;45.532;5.290;2022-12-18T03:26:12;49.00;;;24.83;;
24325;SDS011;12448;45.532;5.290;2022-12-18T03:28:53;50.23;;;25.30;;
24325;SDS011;12448;45.532;5.290;2022-12-18T03:31:24;44.50;;;22.53;;
24325;SDS011;12448;45.532;5.290;2022-12-18T03:33:55;46.73;;;22.90;;
24325;SDS011;12448;45.532;5.290;2022-12-18T03:36:24;41.53;;;21.73;;
24325;SDS011;12448;45.532;5.290;2022-12-18T03:38:51;38.07;;;20.13;;
24325;SDS011;12448;45.532;5.290;2022-12-18T03:46:47;46.63;;;23.47;;
24325;SDS011;12448;45.532;5.290;2022-12-18T03:51:54;32.80;;;18.30;;
24325;SDS011;12448;45.532;5.290;2022-12-18T03:54:26;34.80;;;18.37;;
24325;SDS011;12448;45.532;5.290;2022-12-18T03:56:55;32.50;;;17.50;;
24325;SDS011;12448;45.532;5.290;2022-12-18T03:59:26;32.97;;;18.23;;
24325;SDS011;12448;45.532;5.290;2022-12-18T04:01:53;35.30;;;17.20;;
24325;SDS011;12448;45.532;5.290;2022-12-18T04:04:23;33.67;;;17.43;;
24325;SDS011;12448;45.532;5.290;2022-12-18T04:06:51;33.70;;;17.67;;
24325;SDS011;12448;45.532;5.290;2022-12-18T04:09:18;30.47;;;16.40;;
24325;SDS011;12448;45.532;5.290;2022-12-18T04:11:45;29.67;;;16.57;;
24325;SDS011;12448;45.532;5.290;2022-12-18T04:14:12;31.87;;;17.13;;
24325;SDS011;12448;45.532;5.290;2022-12-18T04:16:38;27.63;;;14.87;;
24325;SDS011;12448;45.532;5.290;2022-12-18T04:19:04;27.47;;;15.07;;
24325;SDS011;12448;45.532;5.290;2022-12-18T04:21:29;26.60;;;15.00;;
24325;SDS011;12448;45.532;5.290;2022-12-18T04:23:55;27.43;;;14.97;;
24325;SDS011;12448;45.532;5.290;2022-12-18T04:26:20;24.60;;;13.87;;
24325;SDS011;12448;45.532;5.290;2022-12-18T04:28:46;29.13;;;15.00;;
24325;SDS011;12448;45.532;5.290;2022-12-18T04:31:12;24.30;;;13.23;;
24325;SDS011;12448;45.532;5.290;2022-12-18T04:33:38;24.80;;;14.00;;
24325;SDS011;12448;45.532;5.290;2022-12-18T04:36:03;25.47;;;13.67;;
24325;SDS011;12448;45.532;5.290;2022-12-18T04:38:29;28.73;;;14.73;;
24325;SDS011;12448;45.532;5.290;2022-12-18T04:40:55;24.40;;;14.07;;
24325;SDS011;12448;45.532;5.290;2022-12-18T04:43:21;25.07;;;14.70;;
24325;SDS011;12448;45.532;5.290;2022-12-18T04:45:46;26.30;;;13.80;;
24325;SDS011;12448;45.532;5.290;2022-12-18T04:48:12;26.40;;;13.53;;
24325;SDS011;12448;45.532;5.290;2022-12-18T04:50:38;27.40;;;13.53;;
24325;SDS011;12448;45.532;5.290;2022-12-18T04:53:03;25.80;;;14.47;;
24325;SDS011;12448;45.532;5.290;2022-12-18T04:55:29;24.90;;;14.03;;
24325;SDS011;12448;45.532;5.290;2022-12-18T04:57:55;25.43;;;13.17;;
24325;SDS011;12448;45.532;5.290;2022-12-18T05:00:21;25.07;;;13.43;;
24325;SDS011;12448;45.532;5.290;2022-12-18T05:02:47;27.53;;;13.83;;
24325;SDS011;12448;45.532;5.290;2022-12-18T05:05:13;23.50;;;12.37;;
24325;SDS011;12448;45.532;5.290;2022-12-18T05:07:39;25.07;;;12.13;;
24325;SDS011;12448;45.532;5.290;2022-12-18T05:10:05;26.03;;;12.73;;
24325;SDS011;12448;45.532;5.290;2022-12-18T05:12:31;27.73;;;13.97;;
24325;SDS011;12448;45.532;5.290;2022-12-18T05:14:57;26.67;;;12.90;;
24325;SDS011;12448;45.532;5.290;2022-12-18T05:17:23;25.20;;;13.43;;
24325;SDS011;12448;45.532;5.290;2022-12-18T05:19:49;26.63;;;13.03;;
24325;SDS011;12448;45.532;5.290;2022-12-18T05:22:14;27.90;;;14.30;;
24325;SDS011;12448;45.532;5.290;2022-12-18T05:24:40;22.50;;;13.43;;
24325;SDS011;12448;45.532;5.290;2022-12-18T05:27:06;24.60;;;13.70;;
24325;SDS011;12448;45.532;5.290;2022-12-18T05:29:32;25.97;;;13.70;;
24325;SDS011;12448;45.532;5.290;2022-12-18T05:31:59;27.17;;;13.70;;
24325;SDS011;12448;45.532;5.290;2022-12-18T05:34:24;22.87;;;13.37;;
24325;SDS011;12448;45.532;5.290;2022-12-18T05:36:50;24.77;;;13.23;;
24325;SDS011;12448;45.532;5.290;2022-12-18T05:39:16;23.37;;;12.40;;
24325;SDS011;12448;45.532;5.290;2022-12-18T05:41:42;25.20;;;12.50;;
24325;SDS011;12448;45.532;5.290;2022-12-18T05:44:07;27.47;;;13.43;;
24325;SDS011;12448;45.532;5.290;2022-12-18T05:46:33;27.33;;;13.20;;
24325;SDS011;12448;45.532;5.290;2022-12-18T05:48:59;24.33;;;13.03;;
24325;SDS011;12448;45.532;5.290;2022-12-18T05:51:26;22.23;;;12.53;;
24325;SDS011;12448;45.532;5.290;2022-12-18T05:53:52;25.73;;;12.13;;
24325;SDS011;12448;45.532;5.290;2022-12-18T05:56:18;21.40;;;11.10;;
24325;SDS011;12448;45.532;5.290;2022-12-18T05:58:46;22.80;;;11.70;;
24325;SDS011;12448;45.532;5.290;2022-12-18T06:01:13;21.73;;;11.23;;
24325;SDS011;12448;45.532;5.290;2022-12-18T06:03:41;23.53;;;12.30;;
24325;SDS011;12448;45.532;5.290;2022-12-18T06:06:14;21.90;;;12.20;;
24325;SDS011;12448;45.532;5.290;2022-12-18T06:08:47;20.37;;;12.00;;
24325;SDS011;12448;45.532;5.290;2022-12-18T06:11:16;20.27;;;11.63;;
24325;SDS011;12448;45.532;5.290;2022-12-18T06:13:43;20.30;;;11.70;;
24325;SDS011;12448;45.532;5.290;2022-12-18T06:16:09;22.10;;;10.90;;
24325;SDS011;12448;45.532;5.290;2022-12-18T06:18:34;17.73;;;10.17;;
24325;SDS011;12448;45.532;5.290;2022-12-18T06:21:00;19.20;;;10.13;;
24325;SDS011;12448;45.532;5.290;2022-12-18T06:23:26;18.00;;;9.70;;
24325;SDS011;12448;45.532;5.290;2022-12-18T06:25:53;18.83;;;10.10;;
24325;SDS011;12448;45.532;5.290;2022-12-18T06:28:18;19.53;;;10.63;;
24325;SDS011;12448;45.532;5.290;2022-12-18T06:30:45;18.57;;;9.87;;
24325;SDS011;12448;45.532;5.290;2022-12-18T06:33:11;17.27;;;9.73;;
24325;SDS011;12448;45.532;5.290;2022-12-18T06:35:37;18.90;;;10.30;;
24325;SDS011;12448;45.532;5.290;2022-12-18T06:38:03;17.57;;;9.30;;
24325;SDS011;12448;45.532;5.290;2022-12-18T06:40:29;19.67;;;9.83;;
24325;SDS011;12448;45.532;5.290;2022-12-18T06:42:54;21.07;;;11.17;;
24325;SDS011;12448;45.532;5.290;2022-12-18T06:45:20;21.80;;;10.53;;
24325;SDS011;12448;45.532;5.290;2022-12-18T06:47:45;18.00;;;9.53;;
24325;SDS011;12448;45.532;5.290;2022-12-18T06:50:11;202.03;;;86.57;;
24325;SDS011;12448;45.532;5.290;2022-12-18T06:52:37;199.83;;;84.67;;
24325;SDS011;12448;45.532;5.290;2022-12-18T06:55:05;65.93;;;35.97;;
24325;SDS011;12448;45.532;5.290;2022-12-18T06:57:33;40.60;;;22.17;;
24325;SDS011;12448;45.532;5.290;2022-12-18T06:59:59;65.60;;;32.50;;
24325;SDS011;12448;45.532;5.290;2022-12-18T07:02:24;81.67;;;40.97;;
24325;SDS011;12448;45.532;5.290;2022-12-18T07:04:50;32.70;;;17.47;;
24325;SDS011;12448;45.532;5.290;2022-12-18T07:07:16;138.57;;;61.37;;
24325;SDS011;12448;45.532;5.290;2022-12-18T07:09:41;122.93;;;54.10;;
24325;SDS011;12448;45.532;5.290;2022-12-18T07:12:07;256.30;;;107.23;;
24325;SDS011;12448;45.532;5.290;2022-12-18T07:14:33;383.60;;;146.77;;
24325;SDS011;12448;45.532;5.290;2022-12-18T07:16:59;349.03;;;134.23;;
24325;SDS011;12448;45.532;5.290;2022-12-18T07:19:24;203.83;;;80.10;;
24325;SDS011;12448;45.532;5.290;2022-12-18T07:21:50;393.87;;;153.23;;
24325;SDS011;12448;45.532;5.290;2022-12-18T07:24:16;349.50;;;140.10;;
24325;SDS011;12448;45.532;5.290;2022-12-18T07:26:41;194.17;;;77.27;;
24325;SDS011;12448;45.532;5.290;2022-12-18T07:29:07;110.20;;;48.13;;
24325;SDS011;12448;45.532;5.290;2022-12-18T07:31:33;111.70;;;47.50;;
24325;SDS011;12448;45.532;5.290;2022-12-18T07:33:58;159.00;;;65.30;;
24325;SDS011;12448;45.532;5.290;2022-12-18T07:36:24;204.63;;;76.23;;
24325;SDS011;12448;45.532;5.290;2022-12-18T07:38:50;161.63;;;60.00;;
24325;SDS011;12448;45.532;5.290;2022-12-18T07:41:17;81.33;;;33.60;;
24325;SDS011;12448;45.532;5.290;2022-12-18T07:43:44;78.97;;;36.20;;
24325;SDS011;12448;45.532;5.290;2022-12-18T07:46:10;61.73;;;28.60;;
24325;SDS011;12448;45.532;5.290;2022-12-18T07:48:38;51.90;;;25.17;;
24325;SDS011;12448;45.532;5.290;2022-12-18T07:51:05;51.97;;;26.33;;
24325;SDS011;12448;45.532;5.290;2022-12-18T07:53:32;53.63;;;26.40;;
24325;SDS011;12448;45.532;5.290;2022-12-18T07:55:59;56.77;;;27.30;;
24325;SDS011;12448;45.532;5.290;2022-12-18T07:58:27;43.10;;;23.33;;
24325;SDS011;12448;45.532;5.290;2022-12-18T08:00:53;59.10;;;28.23;;
24325;SDS011;12448;45.532;5.290;2022-12-18T08:03:19;144.67;;;51.90;;
24325;SDS011;12448;45.532;5.290;2022-12-18T08:05:44;145.70;;;53.43;;
24325;SDS011;12448;45.532;5.290;2022-12-18T08:08:10;165.83;;;58.37;;
24325;SDS011;12448;45.532;5.290;2022-12-18T08:10:37;117.77;;;44.30;;
24325;SDS011;12448;45.532;5.290;2022-12-18T08:13:03;98.80;;;37.27;;
24325;SDS011;12448;45.532;5.290;2022-12-18T08:15:28;41.87;;;19.50;;
24325;SDS011;12448;45.532;5.290;2022-12-18T08:17:56;45.20;;;20.07;;
24325;SDS011;12448;45.532;5.290;2022-12-18T08:20:22;23.17;;;12.73;;
24325;SDS011;12448;45.532;5.290;2022-12-18T08:22:47;20.77;;;11.73;;
24325;SDS011;12448;45.532;5.290;2022-12-18T08:25:13;22.17;;;11.90;;
24325;SDS011;12448;45.532;5.290;2022-12-18T08:27:39;17.40;;;9.93;;
24325;SDS011;12448;45.532;5.290;2022-12-18T08:30:04;16.00;;;9.00;;
24325;SDS011;12448;45.532;5.290;2022-12-18T08:32:31;15.40;;;8.53;;
24325;SDS011;12448;45.532;5.290;2022-12-18T08:34:57;15.63;;;8.57;;
24325;SDS011;12448;45.532;5.290;2022-12-18T08:37:23;17.20;;;9.70;;
24325;SDS011;12448;45.532;5.290;2022-12-18T08:39:49;23.93;;;9.93;;
24325;SDS011;12448;45.532;5.290;2022-12-18T08:42:15;21.00;;;10.63;;
24325;SDS011;12448;45.532;5.290;2022-12-18T08:45:04;17.93;;;9.17;;
24325;SDS011;12448;45.532;5.290;2022-12-18T08:47:30;15.53;;;8.50;;
24325;SDS011;12448;45.532;5.290;2022-12-18T08:49:55;15.77;;;8.40;;
24325;SDS011;12448;45.532;5.290;2022-12-18T08:52:21;14.20;;;7.00;;
24325;SDS011;12448;45.532;5.290;2022-12-18T08:54:46;13.33;;;6.17;;
24325;SDS011;12448;45.532;5.290;2022-12-18T08:57:12;12.67;;;7.10;;
24325;SDS011;12448;45.532;5.290;2022-12-18T08:59:37;15.63;;;7.43;;
24325;SDS011;12448;45.532;5.290;2022-12-18T09:02:03;10.67;;;5.97;;
24325;SDS011;12448;45.532;5.290;2022-12-18T09:04:29;9.17;;;5.00;;
24325;SDS011;12448;45.532;5.290;2022-12-18T09:06:55;7.43;;;4.90;;
24325;SDS011;12448;45.532;5.290;2022-12-18T09:09:21;9.30;;;4.77;;
24325;SDS011;12448;45.532;5.290;2022-12-18T09:11:47;9.20;;;5.17;;
24325;SDS011;12448;45.532;5.290;2022-12-18T09:14:12;10.37;;;4.80;;
24325;SDS011;12448;45.532;5.290;2022-12-18T09:16:38;14.73;;;5.23;;
24325;SDS011;12448;45.532;5.290;2022-12-18T09:19:04;10.13;;;4.60;;
24325;SDS011;12448;45.532;5.290;2022-12-18T09:21:31;8.40;;;4.43;;
24325;SDS011;12448;45.532;5.290;2022-12-18T09:23:58;7.80;;;4.67;;
24325;SDS011;12448;45.532;5.290;2022-12-18T09:26:25;6.60;;;4.17;;
24325;SDS011;12448;45.532;5.290;2022-12-18T09:28:51;9.07;;;4.63;;
24325;SDS011;12448;45.532;5.290;2022-12-18T09:31:18;12.90;;;7.40;;
24325;SDS011;12448;45.532;5.290;2022-12-18T09:33:45;9.07;;;5.20;;
24325;SDS011;12448;45.532;5.290;2022-12-18T09:36:12;7.47;;;4.60;;
24325;SDS011;12448;45.532;5.290;2022-12-18T09:38:39;26.97;;;15.37;;
24325;SDS011;12448;45.532;5.290;2022-12-18T09:41:33;8.73;;;5.57;;
24325;SDS011;12448;45.532;5.290;2022-12-18T09:44:25;29.13;;;21.30;;
24325;SDS011;12448;45.532;5.290;2022-12-18T09:47:16;12.57;;;7.23;;
24325;SDS011;12448;45.532;5.290;2022-12-18T09:49:44;13.63;;;8.63;;
24325;SDS011;12448;45.532;5.290;2022-12-18T09:52:14;12.40;;;5.67;;
24325;SDS011;12448;45.532;5.290;2022-12-18T09:54:41;10.40;;;6.00;;
24325;SDS011;12448;45.532;5.290;2022-12-18T09:57:18;9.80;;;6.20;;
24325;SDS011;12448;45.532;5.290;2022-12-18T09:59:48;15.43;;;10.40;;
24325;SDS011;12448;45.532;5.290;2022-12-18T10:02:20;14.35;;;8.80;;
24325;SDS011;12448;45.532;5.290;2022-12-18T10:05:06;12.40;;;7.27;;
24325;SDS011;12448;45.532;5.290;2022-12-18T10:07:50;12.00;;;5.80;;
24325;SDS011;12448;45.532;5.290;2022-12-18T10:13:16;11.43;;;5.15;;
24325;SDS011;12448;45.532;5.290;2022-12-18T10:15:54;11.70;;;5.23;;
24325;SDS011;12448;45.532;5.290;2022-12-18T10:21:12;8.75;;;5.40;;
24325;SDS011;12448;45.532;5.290;2022-12-18T10:23:45;9.23;;;5.18;;
24325;SDS011;12448;45.532;5.290;2022-12-18T10:26:22;9.70;;;5.47;;
24325;SDS011;12448;45.532;5.290;2022-12-18T10:28:49;10.30;;;5.87;;
24325;SDS011;12448;45.532;5.290;2022-12-18T10:31:20;8.60;;;5.22;;
24325;SDS011;12448;45.532;5.290;2022-12-18T10:33:48;12.82;;;5.18;;
24325;SDS011;12448;45.532;5.290;2022-12-18T10:36:13;9.98;;;4.85;;
24325;SDS011;12448;45.532;5.290;2022-12-18T10:38:39;16.83;;;7.22;;
24325;SDS011;12448;45.532;5.290;2022-12-18T10:43:39;9.43;;;5.43;;
24325;SDS011;12448;45.532;5.290;2022-12-18T10:51:19;8.43;;;5.13;;
24325;SDS011;12448;45.532;5.290;2022-12-18T10:53:54;8.10;;;4.60;;
24325;SDS011;12448;45.532;5.290;2022-12-18T10:56:23;10.18;;;4.95;;
24325;SDS011;12448;45.532;5.290;2022-12-18T10:58:59;8.23;;;4.70;;
24325;SDS011;12448;45.532;5.290;2022-12-18T11:01:27;7.97;;;4.80;;
24325;SDS011;12448;45.532;5.290;2022-12-18T11:06:22;10.32;;;4.88;;
24325;SDS011;12448;45.532;5.290;2022-12-18T11:09:05;12.57;;;4.93;;
24325;SDS011;12448;45.532;5.290;2022-12-18T11:11:54;11.45;;;5.47;;
24325;SDS011;12448;45.532;5.290;2022-12-18T11:14:32;8.32;;;4.45;;
24325;SDS011;12448;45.532;5.290;2022-12-18T11:17:17;11.07;;;4.93;;
24325;SDS011;12448;45.532;5.290;2022-12-18T11:19:53;8.75;;;5.00;;
24325;SDS011;12448;45.532;5.290;2022-12-18T11:22:21;7.65;;;4.60;;
24325;SDS011;12448;45.532;5.290;2022-12-18T11:27:24;12.25;;;5.22;;
24325;SDS011;12448;45.532;5.290;2022-12-18T11:29:50;13.07;;;4.85;;
24325;SDS011;12448;45.532;5.290;2022-12-18T11:32:22;20.73;;;10.27;;
24325;SDS011;12448;45.532;5.290;2022-12-18T11:34:59;93.18;;;43.40;;
24325;SDS011;12448;45.532;5.290;2022-12-18T11:37:29;54.13;;;23.73;;
24325;SDS011;12448;45.532;5.290;2022-12-18T11:39:57;15.55;;;7.82;;
24325;SDS011;12448;45.532;5.290;2022-12-18T11:50:15;16.85;;;10.18;;
24325;SDS011;12448;45.532;5.290;2022-12-18T11:52:54;34.28;;;18.77;;
24325;SDS011;12448;45.532;5.290;2022-12-18T12:01:02;17.52;;;11.18;;
24325;SDS011;12448;45.532;5.290;2022-12-18T12:11:31;13.60;;;8.60;;
24325;SDS011;12448;45.532;5.290;2022-12-18T12:14:21;13.00;;;6.50;;
24325;SDS011;12448;45.532;5.290;2022-12-18T12:17:11;40.53;;;29.73;;
24325;SDS011;12448;45.532;5.290;2022-12-18T12:28:13;11.60;;;7.38;;
24325;SDS011;12448;45.532;5.290;2022-12-18T12:30:44;12.38;;;6.80;;
24325;SDS011;12448;45.532;5.290;2022-12-18T12:33:47;217.63;;;81.10;;
24325;SDS011;12448;45.532;5.290;2022-12-18T12:36:26;39.85;;;18.27;;
24325;SDS011;12448;45.532;5.290;2022-12-18T12:38:59;123.65;;;52.20;;
24325;SDS011;12448;45.532;5.290;2022-12-18T12:41:31;133.60;;;58.58;;
24325;SDS011;12448;45.532;5.290;2022-12-18T12:44:20;12.52;;;4.90;;
24325;SDS011;12448;45.532;5.290;2022-12-18T12:46:52;10.90;;;5.50;;
24325;SDS011;12448;45.532;5.290;2022-12-18T12:49:23;15.02;;;7.85;;
24325;SDS011;12448;45.532;5.290;2022-12-18T12:52:03;9.07;;;4.63;;
24325;SDS011;12448;45.532;5.290;2022-12-18T12:54:32;15.63;;;8.07;;
24325;SDS011;12448;45.532;5.290;2022-12-18T12:59:57;30.40;;;15.52;;
24325;SDS011;12448;45.532;5.290;2022-12-18T13:02:48;7.90;;;4.45;;
24325;SDS011;12448;45.532;5.290;2022-12-18T13:05:30;45.78;;;21.67;;
24325;SDS011;12448;45.532;5.290;2022-12-18T13:08:10;106.88;;;46.35;;
24325;SDS011;12448;45.532;5.290;2022-12-18T13:10:40;13.07;;;5.78;;
24325;SDS011;12448;45.532;5.290;2022-12-18T13:13:11;11.07;;;6.20;;
24325;SDS011;12448;45.532;5.290;2022-12-18T13:15:38;11.18;;;4.45;;
24325;SDS011;12448;45.532;5.290;2022-12-18T13:20:44;10.05;;;4.82;;
24325;SDS011;12448;45.532;5.290;2022-12-18T13:25:48;12.93;;;4.15;;
24325;SDS011;12448;45.532;5.290;2022-12-18T13:28:49;8.95;;;3.97;;
24325;SDS011;12448;45.532;5.290;2022-12-18T13:31:10;11.27;;;4.47;;
24325;SDS011;12448;45.532;5.290;2022-12-18T13:33:43;7.60;;;3.78;;
24325;SDS011;12448;45.532;5.290;2022-12-18T13:39:09;6.88;;;3.65;;
24325;SDS011;12448;45.532;5.290;2022-12-18T13:41:35;10.25;;;3.72;;
24325;SDS011;12448;45.532;5.290;2022-12-18T13:46:59;4.75;;;3.28;;
24325;SDS011;12448;45.532;5.290;2022-12-18T13:52:03;7.35;;;3.35;;
24325;SDS011;12448;45.532;5.290;2022-12-18T13:54:53;5.93;;;2.88;;
24325;SDS011;12448;45.532;5.290;2022-12-18T13:57:30;6.15;;;3.85;;
24325;SDS011;12448;45.532;5.290;2022-12-18T13:59:56;11.52;;;3.45;;
24325;SDS011;12448;45.532;5.290;2022-12-18T14:02:23;8.85;;;3.38;;
24325;SDS011;12448;45.532;5.290;2022-12-18T14:04:51;10.50;;;3.35;;
24325;SDS011;12448;45.532;5.290;2022-12-18T14:12:44;10.50;;;3.63;;
24325;SDS011;12448;45.532;5.290;2022-12-18T14:18:01;7.75;;;3.35;;
24325;SDS011;12448;45.532;5.290;2022-12-18T14:20:47;6.93;;;3.10;;
24325;SDS011;12448;45.532;5.290;2022-12-18T14:23:50;8.80;;;3.25;;
24325;SDS011;12448;45.532;5.290;2022-12-18T14:32:10;9.13;;;3.60;;
24325;SDS011;12448;45.532;5.290;2022-12-18T14:34:39;5.60;;;3.67;;
24325;SDS011;12448;45.532;5.290;2022-12-18T14:37:04;7.78;;;5.07;;
24325;SDS011;12448;45.532;5.290;2022-12-18T14:39:31;8.45;;;3.40;;
24325;SDS011;12448;45.532;5.290;2022-12-18T14:41:57;8.88;;;3.90;;
24325;SDS011;12448;45.532;5.290;2022-12-18T14:44:23;7.00;;;5.07;;
24325;SDS011;12448;45.532;5.290;2022-12-18T14:46:49;9.35;;;4.68;;
24325;SDS011;12448;45.532;5.290;2022-12-18T14:51:41;9.02;;;3.40;;
24325;SDS011;12448;45.532;5.290;2022-12-18T14:54:23;12.93;;;4.53;;
24325;SDS011;12448;45.532;5.290;2022-12-18T14:59:40;8.25;;;3.20;;
24325;SDS011;12448;45.532;5.290;2022-12-18T15:05:01;15.82;;;10.32;;
24325;SDS011;12448;45.532;5.290;2022-12-18T15:07:45;6.78;;;3.67;;
24325;SDS011;12448;45.532;5.290;2022-12-18T15:25:49;6.53;;;2.80;;
24325;SDS011;12448;45.532;5.290;2022-12-18T15:28:43;6.95;;;2.88;;
24325;SDS011;12448;45.532;5.290;2022-12-18T15:33:43;10.80;;;3.08;;
24325;SDS011;12448;45.532;5.290;2022-12-18T15:36:19;8.57;;;2.60;;
24325;SDS011;12448;45.532;5.290;2022-12-18T15:38:47;7.45;;;2.45;;
24325;SDS011;12448;45.532;5.290;2022-12-18T15:41:14;6.50;;;2.58;;
24325;SDS011;12448;45.532;5.290;2022-12-18T15:43:42;6.70;;;3.13;;
24325;SDS011;12448;45.532;5.290;2022-12-18T15:48:48;5.13;;;2.70;;
24325;SDS011;12448;45.532;5.290;2022-12-18T15:51:36;4.53;;;2.30;;
24325;SDS011;12448;45.532;5.290;2022-12-18T15:54:03;4.57;;;2.22;;
24325;SDS011;12448;45.532;5.290;2022-12-18T15:56:31;4.72;;;2.50;;
24325;SDS011;12448;45.532;5.290;2022-12-18T15:59:17;8.00;;;3.65;;
24325;SDS011;12448;45.532;5.290;2022-12-18T16:01:48;5.20;;;2.58;;
24325;SDS011;12448;45.532;5.290;2022-12-18T16:04:20;5.72;;;2.22;;
24325;SDS011;12448;45.532;5.290;2022-12-18T16:06:50;4.88;;;2.40;;
24325;SDS011;12448;45.532;5.290;2022-12-18T16:09:18;4.28;;;1.90;;
24325;SDS011;12448;45.532;5.290;2022-12-18T16:11:44;4.45;;;2.50;;
24325;SDS011;12448;45.532;5.290;2022-12-18T16:16:44;3.63;;;2.30;;
24325;SDS011;12448;45.532;5.290;2022-12-18T16:19:11;4.10;;;2.03;;
24325;SDS011;12448;45.532;5.290;2022-12-18T16:21:37;5.57;;;2.60;;
24325;SDS011;12448;45.532;5.290;2022-12-18T16:24:03;8.00;;;2.67;;
24325;SDS011;12448;45.532;5.290;2022-12-18T16:26:31;6.15;;;3.13;;
24325;SDS011;12448;45.532;5.290;2022-12-18T16:29:00;8.15;;;2.10;;
24325;SDS011;12448;45.532;5.290;2022-12-18T16:31:25;5.82;;;2.50;;
24325;SDS011;12448;45.532;5.290;2022-12-18T16:36:53;9.50;;;2.05;;
24325;SDS011;12448;45.532;5.290;2022-12-18T16:39:20;8.20;;;2.88;;
24325;SDS011;12448;45.532;5.290;2022-12-18T16:41:46;6.22;;;3.03;;
24325;SDS011;12448;45.532;5.290;2022-12-18T16:44:12;7.70;;;2.50;;
24325;SDS011;12448;45.532;5.290;2022-12-18T16:46:39;4.03;;;2.20;;
24325;SDS011;12448;45.532;5.290;2022-12-18T16:49:15;5.53;;;2.58;;
24325;SDS011;12448;45.532;5.290;2022-12-18T16:51:43;7.18;;;3.90;;
24325;SDS011;12448;45.532;5.290;2022-12-18T16:54:16;7.88;;;2.78;;
24325;SDS011;12448;45.532;5.290;2022-12-18T16:56:41;4.82;;;2.47;;
24325;SDS011;12448;45.532;5.290;2022-12-18T16:59:09;6.63;;;2.60;;
24325;SDS011;12448;45.532;5.290;2022-12-18T17:01:35;6.30;;;2.47;;
24325;SDS011;12448;45.532;5.290;2022-12-18T17:04:02;5.53;;;2.40;;
24325;SDS011;12448;45.532;5.290;2022-12-18T17:06:30;5.40;;;2.40;;
24325;SDS011;12448;45.532;5.290;2022-12-18T17:08:58;6.15;;;2.50;;
24325;SDS011;12448;45.532;5.290;2022-12-18T17:11:25;13.98;;;5.47;;
24325;SDS011;12448;45.532;5.290;2022-12-18T17:13:55;20.55;;;9.55;;
24325;SDS011;12448;45.532;5.290;2022-12-18T17:16:21;14.73;;;7.53;;